METAR és
SPECI
METAR LHBP 012030Z 34007KT 9999 SCT030 BKN063 18/17 Q1011 WS RWY31 NOSIG=
METAR LHBP 012000Z 35008KT 330V030 9999 FEW030 BKN063 18/18 Q1011 NOSIG=
METAR LHBP 011930Z 33010KT 9999 FEW030 SCT066 18/17 Q1010 NOSIG=
METAR LHBP 011900Z 33010KT 9999 FEW030 FEW066 18/17 Q1011 NOSIG=
METAR LHBP 011830Z 32009KT 9999 FEW030 BKN066 18/18 Q1010 NOSIG=
METAR LHBP 011800Z 33011KT 9999 FEW028 BKN066 18/18 Q1010 NOSIG=
TAF
TAF LHBP 011700Z 0118/0218 34007KT 9999 SCT030 BKN080 TEMPO 0118/0205 4000 SHRA TSRA SCT010 FEW020CB BKN030 BECMG 0208/0211 SCT025 SCT090 BKN180 BECMG 0213/0216 CAVOK=
GAMET
Nincs érvényes távirat! 
FAHU41 LHBM 011100
LHCC GAMET VALID 011200/011800 LHBP-
BUDAPEST FIR BLW FL100
SECN 1
SIGWX: ISOL TS E OF 01930
ISOL EMBD TS W OF E01930
SIG CLD: ISOL TCU CB 2000-4000/XXX FT AGL E OF E01930
EMBD CB 500-1500/XXX FT AGL W OF E01930
TURB: MOD SFC/1500 FT AMSL W OF E01800
SIGMETS APPLICABLE: 05 AT TIME OF ISSUE=
AIRMET
Nincs érvényes távirat! 
WAHU41 LHBM 311610
LHCC AIRMET 01 VALID 311610/311800 LHBP-
LHCC BUDAPEST FIR ISOL TS OBS AT 1610Z E OF E01900 TOP FL240
MOV NE NC=
SIGMET
WSHU31 LHBM 011900
LHCC SIGMET 09 VALID 011900/012100 LHBP-
LHCC BUDAPEST FIR EMBD TS OBS BTN E01820 AND E01920 TOP
FL320 MOV NNW WKN=
OMSZ: 2014. szeptember 1. 21:06 (19:06  UTC)
[WSHU31]
SIGMET
Vulkáni hamufelhő
Nincs érvényes távirat! 
WVHU31 LHBM 271515 CCA
LHCC SIGMET 03 VALID 271515/271800 LHBP-
LHCC BUDAPEST FIR EXERCISE VOLCEX12/01
CNL VA SIGMET 02 271200/271800
EXERCISE EXERCISE EXERCISE VOLCEX12/01=